KSYR/SYR METAR and TAF weather

Enter ICAO airport designator
Station Type Date Time Source
KSYR METAR 2021/01/27 12:54 UTC NOAA

KSYR 271254Z 29012G20KT 10SM OVC013 M02/M06 A3008 RMK AO2 SNE06 SLP190 P0000 T10221056


Station Type Date Time Source
KSYR Decoded METAR 2021/01/27 12:54 UTC NOAA

SYRACUSE HANCOCK INTERNATIONAL AIRPORT , NY, United States (KSYR) 43-07N 76-06W 127M
Jan 27, 2021 - 07:54 AM EST / 2021.01.27 1254 UTC
Wind: from the WNW (290 degrees) at 14 MPH (12 KT) gusting to 23 MPH (20 KT):0
Visibility: 10 mile(s):0
Sky conditions: overcast
Precipitation last hour: A trace
Temperature: 28.0 F (-2.2 C)
Windchill: 17 F (-8 C):1
Dew Point: 21.9 F (-5.6 C)
Relative Humidity: 77%
Pressure (altimeter): 30.08 in. Hg (1018 hPa)
ob: KSYR 271254Z 29012G20KT 10SM OVC013 M02/M06 A3008 RMK AO2 SNE06 SLP190 P0000 T10221056
cycle: 13

Station Type Date Time Source
KSYR TAF 2021/01/27 12:27 UTC NOAA

TAF KSYR 271125Z 2712/2812 30007KT P6SM -SHSN OVC011
FM280800 32006KT P6SM OVC021
FM281100 33008KT P6SM OVC019

Example: see airport list